sensor_id;sensor_type;location;lat;lon;timestamp;temperature;humidity
32201;DHT22;18701;45.588;5.288;2024-03-02T00:01:09;9.80;99.90
32201;DHT22;18701;45.588;5.288;2024-03-02T00:03:37;9.90;99.90
32201;DHT22;18701;45.588;5.288;2024-03-02T00:06:03;9.90;99.90
32201;DHT22;18701;45.588;5.288;2024-03-02T00:08:29;9.80;99.90
32201;DHT22;18701;45.588;5.288;2024-03-02T00:10:59;9.90;99.90
32201;DHT22;18701;45.588;5.288;2024-03-02T00:13:25;10.00;99.90
32201;DHT22;18701;45.588;5.288;2024-03-02T00:15:55;9.90;99.90
32201;DHT22;18701;45.588;5.288;2024-03-02T00:18:32;9.90;99.90
32201;DHT22;18701;45.588;5.288;2024-03-02T00:20:58;9.90;99.90
32201;DHT22;18701;45.588;5.288;2024-03-02T00:23:27;9.90;99.90
32201;DHT22;18701;45.588;5.288;2024-03-02T00:25:54;9.80;99.90
32201;DHT22;18701;45.588;5.288;2024-03-02T00:28:34;9.90;99.90
32201;DHT22;18701;45.588;5.288;2024-03-02T00:31:04;9.90;99.90
32201;DHT22;18701;45.588;5.288;2024-03-02T00:33:50;10.10;99.90
32201;DHT22;18701;45.588;5.288;2024-03-02T00:36:20;10.10;99.90
32201;DHT22;18701;45.588;5.288;2024-03-02T00:38:51;10.00;99.90
32201;DHT22;18701;45.588;5.288;2024-03-02T00:41:27;10.10;99.90
32201;DHT22;18701;45.588;5.288;2024-03-02T00:46:24;10.10;99.90
32201;DHT22;18701;45.588;5.288;2024-03-02T00:48:57;10.10;99.90
32201;DHT22;18701;45.588;5.288;2024-03-02T00:51:25;10.10;99.90
32201;DHT22;18701;45.588;5.288;2024-03-02T00:53:52;10.10;99.90
32201;DHT22;18701;45.588;5.288;2024-03-02T00:56:18;10.20;99.90
32201;DHT22;18701;45.588;5.288;2024-03-02T00:58:44;10.20;99.90
32201;DHT22;18701;45.588;5.288;2024-03-02T01:01:10;10.40;99.90
32201;DHT22;18701;45.588;5.288;2024-03-02T01:03:35;10.50;99.90
32201;DHT22;18701;45.588;5.288;2024-03-02T01:06:03;10.40;99.90
32201;DHT22;18701;45.588;5.288;2024-03-02T01:08:28;10.50;99.90
32201;DHT22;18701;45.588;5.288;2024-03-02T01:10:54;10.30;99.90
32201;DHT22;18701;45.588;5.288;2024-03-02T01:13:21;10.30;99.90
32201;DHT22;18701;45.588;5.288;2024-03-02T01:15:47;10.50;99.90
32201;DHT22;18701;45.588;5.288;2024-03-02T01:18:13;10.40;99.90
32201;DHT22;18701;45.588;5.288;2024-03-02T01:20:38;10.40;99.90
32201;DHT22;18701;45.588;5.288;2024-03-02T01:23:04;10.60;99.90
32201;DHT22;18701;45.588;5.288;2024-03-02T01:25:29;10.40;99.90
32201;DHT22;18701;45.588;5.288;2024-03-02T01:27:55;10.40;99.90
32201;DHT22;18701;45.588;5.288;2024-03-02T01:30:21;10.40;99.90
32201;DHT22;18701;45.588;5.288;2024-03-02T01:32:47;10.30;99.90
32201;DHT22;18701;45.588;5.288;2024-03-02T01:35:12;10.40;99.90
32201;DHT22;18701;45.588;5.288;2024-03-02T01:37:38;10.40;99.90
32201;DHT22;18701;45.588;5.288;2024-03-02T01:40:04;10.40;99.90
32201;DHT22;18701;45.588;5.288;2024-03-02T01:42:35;10.40;99.90
32201;DHT22;18701;45.588;5.288;2024-03-02T01:45:01;10.40;99.90
32201;DHT22;18701;45.588;5.288;2024-03-02T01:47:27;10.40;99.90
32201;DHT22;18701;45.588;5.288;2024-03-02T01:49:53;10.30;99.90
32201;DHT22;18701;45.588;5.288;2024-03-02T01:52:18;10.50;99.90
32201;DHT22;18701;45.588;5.288;2024-03-02T01:54:44;10.40;99.90
32201;DHT22;18701;45.588;5.288;2024-03-02T01:57:10;10.50;99.90
32201;DHT22;18701;45.588;5.288;2024-03-02T01:59:35;10.50;99.90
32201;DHT22;18701;45.588;5.288;2024-03-02T02:02:01;10.60;99.90
32201;DHT22;18701;45.588;5.288;2024-03-02T02:04:26;10.60;99.90
32201;DHT22;18701;45.588;5.288;2024-03-02T02:06:53;10.60;99.90
32201;DHT22;18701;45.588;5.288;2024-03-02T02:09:19;10.60;99.90
32201;DHT22;18701;45.588;5.288;2024-03-02T02:11:45;10.60;99.90
32201;DHT22;18701;45.588;5.288;2024-03-02T02:14:10;10.50;99.90
32201;DHT22;18701;45.588;5.288;2024-03-02T02:16:36;10.60;99.90
32201;DHT22;18701;45.588;5.288;2024-03-02T02:19:02;10.60;99.90
32201;DHT22;18701;45.588;5.288;2024-03-02T02:21:28;10.50;99.90
32201;DHT22;18701;45.588;5.288;2024-03-02T02:23:54;10.50;99.90
32201;DHT22;18701;45.588;5.288;2024-03-02T02:26:19;10.50;99.90
32201;DHT22;18701;45.588;5.288;2024-03-02T02:28:45;10.50;99.90
32201;DHT22;18701;45.588;5.288;2024-03-02T02:31:14;10.70;99.90
32201;DHT22;18701;45.588;5.288;2024-03-02T02:33:40;10.60;99.90
32201;DHT22;18701;45.588;5.288;2024-03-02T02:36:06;10.60;99.90
32201;DHT22;18701;45.588;5.288;2024-03-02T02:38:33;10.60;99.90
32201;DHT22;18701;45.588;5.288;2024-03-02T02:41:02;10.50;99.90
32201;DHT22;18701;45.588;5.288;2024-03-02T02:43:27;10.60;99.90
32201;DHT22;18701;45.588;5.288;2024-03-02T02:45:53;10.60;99.90
32201;DHT22;18701;45.588;5.288;2024-03-02T02:48:18;10.50;99.90
32201;DHT22;18701;45.588;5.288;2024-03-02T02:50:44;10.70;99.90
32201;DHT22;18701;45.588;5.288;2024-03-02T02:53:09;10.70;99.90
32201;DHT22;18701;45.588;5.288;2024-03-02T02:55:35;10.60;99.90
32201;DHT22;18701;45.588;5.288;2024-03-02T02:58:07;10.50;99.90
32201;DHT22;18701;45.588;5.288;2024-03-02T03:00:33;10.50;99.90
32201;DHT22;18701;45.588;5.288;2024-03-02T03:02:59;10.60;99.90
32201;DHT22;18701;45.588;5.288;2024-03-02T03:05:24;10.70;99.90
32201;DHT22;18701;45.588;5.288;2024-03-02T03:07:50;10.70;99.90
32201;DHT22;18701;45.588;5.288;2024-03-02T03:10:16;10.60;99.90
32201;DHT22;18701;45.588;5.288;2024-03-02T03:12:42;10.70;99.90
32201;DHT22;18701;45.588;5.288;2024-03-02T03:15:09;10.60;99.90
32201;DHT22;18701;45.588;5.288;2024-03-02T03:17:35;10.40;99.90
32201;DHT22;18701;45.588;5.288;2024-03-02T03:20:01;10.50;99.90
32201;DHT22;18701;45.588;5.288;2024-03-02T03:22:28;10.60;99.90
32201;DHT22;18701;45.588;5.288;2024-03-02T03:24:53;10.50;99.90
32201;DHT22;18701;45.588;5.288;2024-03-02T03:27:19;10.60;99.90
32201;DHT22;18701;45.588;5.288;2024-03-02T03:29:47;10.60;99.90
32201;DHT22;18701;45.588;5.288;2024-03-02T03:32:13;10.40;99.90
32201;DHT22;18701;45.588;5.288;2024-03-02T03:34:39;10.30;99.90
32201;DHT22;18701;45.588;5.288;2024-03-02T03:37:04;10.40;99.90
32201;DHT22;18701;45.588;5.288;2024-03-02T03:39:30;10.40;99.90
32201;DHT22;18701;45.588;5.288;2024-03-02T03:41:55;10.50;99.90
32201;DHT22;18701;45.588;5.288;2024-03-02T03:44:21;10.50;99.90
32201;DHT22;18701;45.588;5.288;2024-03-02T03:46:47;10.50;99.90
32201;DHT22;18701;45.588;5.288;2024-03-02T03:49:12;10.40;99.90
32201;DHT22;18701;45.588;5.288;2024-03-02T03:51:38;10.50;99.90
32201;DHT22;18701;45.588;5.288;2024-03-02T03:54:03;10.60;99.90
32201;DHT22;18701;45.588;5.288;2024-03-02T03:56:29;10.50;99.90
32201;DHT22;18701;45.588;5.288;2024-03-02T03:58:54;10.50;99.90
32201;DHT22;18701;45.588;5.288;2024-03-02T04:01:20;10.50;99.90
32201;DHT22;18701;45.588;5.288;2024-03-02T04:03:48;10.60;99.90
32201;DHT22;18701;45.588;5.288;2024-03-02T04:06:13;10.50;99.90
32201;DHT22;18701;45.588;5.288;2024-03-02T04:08:41;10.30;99.90
32201;DHT22;18701;45.588;5.288;2024-03-02T04:11:06;10.40;99.90
32201;DHT22;18701;45.588;5.288;2024-03-02T04:13:33;10.30;99.90
32201;DHT22;18701;45.588;5.288;2024-03-02T04:15:58;10.40;99.90
32201;DHT22;18701;45.588;5.288;2024-03-02T04:18:24;10.50;99.90
32201;DHT22;18701;45.588;5.288;2024-03-02T04:20:49;10.40;99.90
32201;DHT22;18701;45.588;5.288;2024-03-02T04:23:15;10.50;99.90
32201;DHT22;18701;45.588;5.288;2024-03-02T04:25:40;10.40;99.90
32201;DHT22;18701;45.588;5.288;2024-03-02T04:28:06;10.40;99.90
32201;DHT22;18701;45.588;5.288;2024-03-02T04:30:31;10.40;99.90
32201;DHT22;18701;45.588;5.288;2024-03-02T04:32:57;10.40;99.90
32201;DHT22;18701;45.588;5.288;2024-03-02T04:35:23;10.30;99.90
32201;DHT22;18701;45.588;5.288;2024-03-02T04:37:49;10.40;99.90
32201;DHT22;18701;45.588;5.288;2024-03-02T04:40:14;10.40;99.90
32201;DHT22;18701;45.588;5.288;2024-03-02T04:42:40;10.40;99.90
32201;DHT22;18701;45.588;5.288;2024-03-02T04:45:06;10.50;99.90
32201;DHT22;18701;45.588;5.288;2024-03-02T04:47:32;10.50;99.90
32201;DHT22;18701;45.588;5.288;2024-03-02T04:49:58;10.40;99.90
32201;DHT22;18701;45.588;5.288;2024-03-02T04:52:23;10.40;99.90
32201;DHT22;18701;45.588;5.288;2024-03-02T04:54:49;10.40;99.90
32201;DHT22;18701;45.588;5.288;2024-03-02T04:57:44;10.50;99.90
32201;DHT22;18701;45.588;5.288;2024-03-02T05:00:10;10.40;99.90
32201;DHT22;18701;45.588;5.288;2024-03-02T05:02:36;10.30;99.90
32201;DHT22;18701;45.588;5.288;2024-03-02T05:05:01;10.30;99.90
32201;DHT22;18701;45.588;5.288;2024-03-02T05:07:28;10.30;99.90
32201;DHT22;18701;45.588;5.288;2024-03-02T05:09:53;10.30;99.90
32201;DHT22;18701;45.588;5.288;2024-03-02T05:12:19;10.30;99.90
32201;DHT22;18701;45.588;5.288;2024-03-02T05:15:03;10.30;99.90
32201;DHT22;18701;45.588;5.288;2024-03-02T05:17:29;10.30;99.90
32201;DHT22;18701;45.588;5.288;2024-03-02T05:19:55;10.30;99.90
32201;DHT22;18701;45.588;5.288;2024-03-02T05:22:20;10.10;99.90
32201;DHT22;18701;45.588;5.288;2024-03-02T05:24:46;10.00;99.90
32201;DHT22;18701;45.588;5.288;2024-03-02T05:27:11;10.00;99.90
32201;DHT22;18701;45.588;5.288;2024-03-02T05:29:37;10.10;99.90
32201;DHT22;18701;45.588;5.288;2024-03-02T05:32:03;10.10;99.90
32201;DHT22;18701;45.588;5.288;2024-03-02T05:34:28;10.00;99.90
32201;DHT22;18701;45.588;5.288;2024-03-02T05:36:54;10.10;99.90
32201;DHT22;18701;45.588;5.288;2024-03-02T05:39:20;10.10;99.90
32201;DHT22;18701;45.588;5.288;2024-03-02T05:41:45;10.20;99.90
32201;DHT22;18701;45.588;5.288;2024-03-02T05:44:11;10.20;99.90
32201;DHT22;18701;45.588;5.288;2024-03-02T05:46:37;10.10;99.90
32201;DHT22;18701;45.588;5.288;2024-03-02T05:49:03;10.10;99.90
32201;DHT22;18701;45.588;5.288;2024-03-02T05:51:29;10.10;99.90
32201;DHT22;18701;45.588;5.288;2024-03-02T05:53:54;10.10;99.90
32201;DHT22;18701;45.588;5.288;2024-03-02T05:56:20;10.20;99.90
32201;DHT22;18701;45.588;5.288;2024-03-02T05:58:45;10.10;99.90
32201;DHT22;18701;45.588;5.288;2024-03-02T06:01:30;10.20;99.90
32201;DHT22;18701;45.588;5.288;2024-03-02T06:03:56;10.20;99.90
32201;DHT22;18701;45.588;5.288;2024-03-02T06:06:22;10.10;99.90
32201;DHT22;18701;45.588;5.288;2024-03-02T06:08:48;10.20;99.90
32201;DHT22;18701;45.588;5.288;2024-03-02T06:11:13;10.20;99.90
32201;DHT22;18701;45.588;5.288;2024-03-02T06:13:39;10.20;99.90
32201;DHT22;18701;45.588;5.288;2024-03-02T06:16:05;10.20;99.90
32201;DHT22;18701;45.588;5.288;2024-03-02T06:18:30;10.20;99.90
32201;DHT22;18701;45.588;5.288;2024-03-02T06:20:56;10.10;99.90
32201;DHT22;18701;45.588;5.288;2024-03-02T06:23:21;10.20;99.90
32201;DHT22;18701;45.588;5.288;2024-03-02T06:25:47;10.20;99.90
32201;DHT22;18701;45.588;5.288;2024-03-02T06:28:12;10.30;99.90
32201;DHT22;18701;45.588;5.288;2024-03-02T06:30:41;10.20;99.90
32201;DHT22;18701;45.588;5.288;2024-03-02T06:33:07;10.30;99.90
32201;DHT22;18701;45.588;5.288;2024-03-02T06:35:33;10.20;99.90
32201;DHT22;18701;45.588;5.288;2024-03-02T06:37:58;10.30;99.90
32201;DHT22;18701;45.588;5.288;2024-03-02T06:40:24;10.30;99.90
32201;DHT22;18701;45.588;5.288;2024-03-02T06:42:50;10.20;99.90
32201;DHT22;18701;45.588;5.288;2024-03-02T06:45:15;10.20;99.90
32201;DHT22;18701;45.588;5.288;2024-03-02T06:47:41;10.30;99.90
32201;DHT22;18701;45.588;5.288;2024-03-02T06:50:06;10.30;99.90
32201;DHT22;18701;45.588;5.288;2024-03-02T06:52:32;10.20;99.90
32201;DHT22;18701;45.588;5.288;2024-03-02T06:54:58;10.40;99.90
32201;DHT22;18701;45.588;5.288;2024-03-02T06:57:23;10.40;99.90
32201;DHT22;18701;45.588;5.288;2024-03-02T06:59:50;10.40;99.90
32201;DHT22;18701;45.588;5.288;2024-03-02T07:02:16;10.20;99.90
32201;DHT22;18701;45.588;5.288;2024-03-02T07:04:42;10.30;99.90
32201;DHT22;18701;45.588;5.288;2024-03-02T07:07:08;10.30;99.90
32201;DHT22;18701;45.588;5.288;2024-03-02T07:09:33;10.40;99.90
32201;DHT22;18701;45.588;5.288;2024-03-02T07:11:59;10.50;99.90
32201;DHT22;18701;45.588;5.288;2024-03-02T07:14:24;10.60;99.90
32201;DHT22;18701;45.588;5.288;2024-03-02T07:17:10;10.50;99.90
32201;DHT22;18701;45.588;5.288;2024-03-02T07:19:35;10.50;99.90
32201;DHT22;18701;45.588;5.288;2024-03-02T07:22:01;10.70;99.90
32201;DHT22;18701;45.588;5.288;2024-03-02T07:24:31;10.70;99.90
32201;DHT22;18701;45.588;5.288;2024-03-02T07:26:56;10.60;99.90
32201;DHT22;18701;45.588;5.288;2024-03-02T07:29:22;10.70;99.90
32201;DHT22;18701;45.588;5.288;2024-03-02T07:31:47;10.70;99.90
32201;DHT22;18701;45.588;5.288;2024-03-02T07:34:13;10.70;99.90
32201;DHT22;18701;45.588;5.288;2024-03-02T07:36:39;10.80;99.90
32201;DHT22;18701;45.588;5.288;2024-03-02T07:39:04;10.70;99.90
32201;DHT22;18701;45.588;5.288;2024-03-02T07:41:30;10.80;99.90
32201;DHT22;18701;45.588;5.288;2024-03-02T07:43:56;10.90;99.90
32201;DHT22;18701;45.588;5.288;2024-03-02T07:46:22;11.00;99.90
32201;DHT22;18701;45.588;5.288;2024-03-02T07:48:47;11.00;99.90
32201;DHT22;18701;45.588;5.288;2024-03-02T07:51:13;10.80;99.90
32201;DHT22;18701;45.588;5.288;2024-03-02T07:53:39;11.00;99.90
32201;DHT22;18701;45.588;5.288;2024-03-02T07:56:05;11.10;99.90
32201;DHT22;18701;45.588;5.288;2024-03-02T07:58:31;11.20;99.90
32201;DHT22;18701;45.588;5.288;2024-03-02T08:00:59;11.30;99.90
32201;DHT22;18701;45.588;5.288;2024-03-02T08:03:26;11.20;99.90
32201;DHT22;18701;45.588;5.288;2024-03-02T08:05:52;11.40;99.90
32201;DHT22;18701;45.588;5.288;2024-03-02T08:08:18;11.60;99.90
32201;DHT22;18701;45.588;5.288;2024-03-02T08:10:44;11.60;99.90
32201;DHT22;18701;45.588;5.288;2024-03-02T08:13:09;11.70;99.90
32201;DHT22;18701;45.588;5.288;2024-03-02T08:15:35;11.70;99.90
32201;DHT22;18701;45.588;5.288;2024-03-02T08:18:00;11.90;99.90
32201;DHT22;18701;45.588;5.288;2024-03-02T08:20:26;11.70;99.90
32201;DHT22;18701;45.588;5.288;2024-03-02T08:22:52;11.80;99.90
32201;DHT22;18701;45.588;5.288;2024-03-02T08:25:20;11.70;99.90
32201;DHT22;18701;45.588;5.288;2024-03-02T08:27:46;11.80;99.90
32201;DHT22;18701;45.588;5.288;2024-03-02T08:30:12;12.10;99.90
32201;DHT22;18701;45.588;5.288;2024-03-02T08:32:37;12.20;99.90
32201;DHT22;18701;45.588;5.288;2024-03-02T08:35:04;12.40;99.90
32201;DHT22;18701;45.588;5.288;2024-03-02T08:37:30;12.30;99.90
32201;DHT22;18701;45.588;5.288;2024-03-02T08:39:56;12.40;99.90
32201;DHT22;18701;45.588;5.288;2024-03-02T08:42:22;12.50;99.90
32201;DHT22;18701;45.588;5.288;2024-03-02T08:44:47;12.10;99.90
32201;DHT22;18701;45.588;5.288;2024-03-02T08:47:13;12.30;99.90
32201;DHT22;18701;45.588;5.288;2024-03-02T08:49:39;12.30;99.90
32201;DHT22;18701;45.588;5.288;2024-03-02T08:52:05;12.30;99.90
32201;DHT22;18701;45.588;5.288;2024-03-02T08:54:30;12.30;99.90
32201;DHT22;18701;45.588;5.288;2024-03-02T08:56:56;12.30;99.90
32201;DHT22;18701;45.588;5.288;2024-03-02T08:59:22;12.20;99.90
32201;DHT22;18701;45.588;5.288;2024-03-02T09:01:48;12.00;99.90
32201;DHT22;18701;45.588;5.288;2024-03-02T09:04:13;12.20;99.90
32201;DHT22;18701;45.588;5.288;2024-03-02T09:06:39;12.10;99.90
32201;DHT22;18701;45.588;5.288;2024-03-02T09:09:04;12.10;99.90
32201;DHT22;18701;45.588;5.288;2024-03-02T09:11:30;12.30;99.90
32201;DHT22;18701;45.588;5.288;2024-03-02T09:13:56;12.20;99.90
32201;DHT22;18701;45.588;5.288;2024-03-02T09:16:23;12.30;99.90
32201;DHT22;18701;45.588;5.288;2024-03-02T09:18:49;12.20;99.90
32201;DHT22;18701;45.588;5.288;2024-03-02T09:21:15;12.20;99.90
32201;DHT22;18701;45.588;5.288;2024-03-02T09:23:40;12.30;99.90
32201;DHT22;18701;45.588;5.288;2024-03-02T09:26:06;12.20;99.90
32201;DHT22;18701;45.588;5.288;2024-03-02T09:28:32;12.20;99.90
32201;DHT22;18701;45.588;5.288;2024-03-02T09:30:57;12.20;99.90
32201;DHT22;18701;45.588;5.288;2024-03-02T09:33:23;12.10;99.90
32201;DHT22;18701;45.588;5.288;2024-03-02T09:35:48;12.10;99.90
32201;DHT22;18701;45.588;5.288;2024-03-02T09:38:14;11.90;99.90
32201;DHT22;18701;45.588;5.288;2024-03-02T09:40:41;11.90;99.90
32201;DHT22;18701;45.588;5.288;2024-03-02T09:43:07;11.70;99.90
32201;DHT22;18701;45.588;5.288;2024-03-02T09:45:33;11.70;99.90
32201;DHT22;18701;45.588;5.288;2024-03-02T09:47:59;11.60;99.90
32201;DHT22;18701;45.588;5.288;2024-03-02T09:50:25;11.60;99.90
32201;DHT22;18701;45.588;5.288;2024-03-02T09:52:52;11.60;99.90
32201;DHT22;18701;45.588;5.288;2024-03-02T09:55:18;11.70;99.90
32201;DHT22;18701;45.588;5.288;2024-03-02T09:57:45;11.80;99.90
32201;DHT22;18701;45.588;5.288;2024-03-02T10:00:11;11.80;99.90
32201;DHT22;18701;45.588;5.288;2024-03-02T10:02:40;11.90;99.90
32201;DHT22;18701;45.588;5.288;2024-03-02T10:05:07;11.80;99.90
32201;DHT22;18701;45.588;5.288;2024-03-02T10:07:33;11.80;99.90
32201;DHT22;18701;45.588;5.288;2024-03-02T10:10:15;11.80;99.90
32201;DHT22;18701;45.588;5.288;2024-03-02T10:12:40;11.80;99.90
32201;DHT22;18701;45.588;5.288;2024-03-02T10:15:07;11.80;99.90
32201;DHT22;18701;45.588;5.288;2024-03-02T10:17:33;12.00;99.90
32201;DHT22;18701;45.588;5.288;2024-03-02T10:19:58;11.90;99.90
32201;DHT22;18701;45.588;5.288;2024-03-02T10:22:24;12.00;99.90
32201;DHT22;18701;45.588;5.288;2024-03-02T10:24:49;12.30;99.90
32201;DHT22;18701;45.588;5.288;2024-03-02T10:27:17;12.30;99.90
32201;DHT22;18701;45.588;5.288;2024-03-02T10:29:46;12.40;99.90
32201;DHT22;18701;45.588;5.288;2024-03-02T10:32:12;12.60;99.90
32201;DHT22;18701;45.588;5.288;2024-03-02T10:34:40;12.50;99.90
32201;DHT22;18701;45.588;5.288;2024-03-02T10:37:06;12.80;99.90
32201;DHT22;18701;45.588;5.288;2024-03-02T10:39:35;13.10;99.90
32201;DHT22;18701;45.588;5.288;2024-03-02T10:42:03;13.10;99.90
32201;DHT22;18701;45.588;5.288;2024-03-02T10:44:29;13.30;99.90
32201;DHT22;18701;45.588;5.288;2024-03-02T10:46:56;13.70;99.90
32201;DHT22;18701;45.588;5.288;2024-03-02T10:49:23;13.80;99.90
32201;DHT22;18701;45.588;5.288;2024-03-02T10:51:50;13.80;99.90
32201;DHT22;18701;45.588;5.288;2024-03-02T10:54:15;13.90;99.90
32201;DHT22;18701;45.588;5.288;2024-03-02T10:56:42;13.80;99.90
32201;DHT22;18701;45.588;5.288;2024-03-02T11:01:48;14.00;99.90
32201;DHT22;18701;45.588;5.288;2024-03-02T11:04:16;14.30;99.90
32201;DHT22;18701;45.588;5.288;2024-03-02T11:06:49;14.40;99.90
32201;DHT22;18701;45.588;5.288;2024-03-02T11:09:20;14.50;99.90
32201;DHT22;18701;45.588;5.288;2024-03-02T11:11:52;14.50;99.90
32201;DHT22;18701;45.588;5.288;2024-03-02T11:14:23;14.60;99.90
32201;DHT22;18701;45.588;5.288;2024-03-02T11:16:50;15.10;99.90
32201;DHT22;18701;45.588;5.288;2024-03-02T11:19:16;15.40;99.90
32201;DHT22;18701;45.588;5.288;2024-03-02T11:21:42;15.90;99.90
32201;DHT22;18701;45.588;5.288;2024-03-02T11:26:52;15.00;99.90
32201;DHT22;18701;45.588;5.288;2024-03-02T11:32:04;15.10;99.90
32201;DHT22;18701;45.588;5.288;2024-03-02T11:34:32;16.20;99.90
32201;DHT22;18701;45.588;5.288;2024-03-02T11:36:58;17.20;99.90
32201;DHT22;18701;45.588;5.288;2024-03-02T11:39:28;16.20;99.90
32201;DHT22;18701;45.588;5.288;2024-03-02T11:41:55;15.90;99.90
32201;DHT22;18701;45.588;5.288;2024-03-02T11:44:21;15.60;99.90
32201;DHT22;18701;45.588;5.288;2024-03-02T11:47:01;15.50;99.90
32201;DHT22;18701;45.588;5.288;2024-03-02T11:49:43;15.30;99.90
32201;DHT22;18701;45.588;5.288;2024-03-02T11:52:14;15.40;99.90
32201;DHT22;18701;45.588;5.288;2024-03-02T11:54:45;15.70;99.90
32201;DHT22;18701;45.588;5.288;2024-03-02T11:57:18;15.60;99.90
32201;DHT22;18701;45.588;5.288;2024-03-02T11:59:48;15.00;99.90
32201;DHT22;18701;45.588;5.288;2024-03-02T12:02:24;14.80;99.90
32201;DHT22;18701;45.588;5.288;2024-03-02T12:04:49;14.80;99.90
32201;DHT22;18701;45.588;5.288;2024-03-02T12:07:19;14.70;99.90
32201;DHT22;18701;45.588;5.288;2024-03-02T12:09:49;14.80;99.90
32201;DHT22;18701;45.588;5.288;2024-03-02T12:12:24;14.90;99.90
32201;DHT22;18701;45.588;5.288;2024-03-02T12:14:51;15.10;99.90
32201;DHT22;18701;45.588;5.288;2024-03-02T12:17:18;15.20;99.90
32201;DHT22;18701;45.588;5.288;2024-03-02T12:19:44;15.60;99.90
32201;DHT22;18701;45.588;5.288;2024-03-02T12:22:11;16.00;99.90
32201;DHT22;18701;45.588;5.288;2024-03-02T12:24:37;17.10;99.90
32201;DHT22;18701;45.588;5.288;2024-03-02T12:27:04;17.20;99.90
32201;DHT22;18701;45.588;5.288;2024-03-02T12:29:30;17.20;99.90
32201;DHT22;18701;45.588;5.288;2024-03-02T12:31:56;17.20;99.90
32201;DHT22;18701;45.588;5.288;2024-03-02T12:34:22;16.70;99.90
32201;DHT22;18701;45.588;5.288;2024-03-02T12:36:49;16.30;99.90
32201;DHT22;18701;45.588;5.288;2024-03-02T12:39:18;16.60;99.90
32201;DHT22;18701;45.588;5.288;2024-03-02T12:41:44;17.00;99.90
32201;DHT22;18701;45.588;5.288;2024-03-02T12:44:10;17.20;99.50
32201;DHT22;18701;45.588;5.288;2024-03-02T12:46:35;17.20;99.50
32201;DHT22;18701;45.588;5.288;2024-03-02T12:49:15;17.80;99.00
32201;DHT22;18701;45.588;5.288;2024-03-02T12:51:46;17.80;97.80
32201;DHT22;18701;45.588;5.288;2024-03-02T12:54:17;18.40;97.60
32201;DHT22;18701;45.588;5.288;2024-03-02T12:56:43;19.50;96.80
32201;DHT22;18701;45.588;5.288;2024-03-02T12:59:19;19.50;95.80
32201;DHT22;18701;45.588;5.288;2024-03-02T13:01:50;19.20;95.70
32201;DHT22;18701;45.588;5.288;2024-03-02T13:04:16;19.00;96.00
32201;DHT22;18701;45.588;5.288;2024-03-02T13:06:41;18.60;95.70
32201;DHT22;18701;45.588;5.288;2024-03-02T13:09:07;18.90;94.60
32201;DHT22;18701;45.588;5.288;2024-03-02T13:11:41;19.00;94.40
32201;DHT22;18701;45.588;5.288;2024-03-02T13:14:07;18.50;94.40
32201;DHT22;18701;45.588;5.288;2024-03-02T13:16:41;16.80;96.10
32201;DHT22;18701;45.588;5.288;2024-03-02T13:19:13;16.80;96.60
32201;DHT22;18701;45.588;5.288;2024-03-02T13:21:41;18.00;96.30
32201;DHT22;18701;45.588;5.288;2024-03-02T13:24:07;18.60;95.30
32201;DHT22;18701;45.588;5.288;2024-03-02T13:26:34;17.50;95.80
32201;DHT22;18701;45.588;5.288;2024-03-02T13:28:59;16.50;96.80
32201;DHT22;18701;45.588;5.288;2024-03-02T13:31:25;16.30;97.30
32201;DHT22;18701;45.588;5.288;2024-03-02T13:33:50;15.90;98.00
32201;DHT22;18701;45.588;5.288;2024-03-02T13:36:16;15.90;97.80
32201;DHT22;18701;45.588;5.288;2024-03-02T13:38:42;15.70;98.50
32201;DHT22;18701;45.588;5.288;2024-03-02T13:41:08;15.60;99.00
32201;DHT22;18701;45.588;5.288;2024-03-02T13:43:34;15.90;99.00
32201;DHT22;18701;45.588;5.288;2024-03-02T13:46:03;15.70;99.00
32201;DHT22;18701;45.588;5.288;2024-03-02T13:48:29;15.80;99.30
32201;DHT22;18701;45.588;5.288;2024-03-02T13:50:55;15.70;99.30
32201;DHT22;18701;45.588;5.288;2024-03-02T13:53:21;15.60;99.60
32201;DHT22;18701;45.588;5.288;2024-03-02T13:55:47;15.70;99.50
32201;DHT22;18701;45.588;5.288;2024-03-02T13:58:13;15.50;99.40
32201;DHT22;18701;45.588;5.288;2024-03-02T14:00:39;15.30;99.70
32201;DHT22;18701;45.588;5.288;2024-03-02T14:03:06;15.40;99.90
32201;DHT22;18701;45.588;5.288;2024-03-02T14:05:32;15.50;99.90
32201;DHT22;18701;45.588;5.288;2024-03-02T14:07:58;15.50;99.90
32201;DHT22;18701;45.588;5.288;2024-03-02T14:10:29;15.40;99.90
32201;DHT22;18701;45.588;5.288;2024-03-02T14:12:55;15.70;99.90
32201;DHT22;18701;45.588;5.288;2024-03-02T14:15:22;16.00;99.90
32201;DHT22;18701;45.588;5.288;2024-03-02T14:17:47;16.00;99.90
32201;DHT22;18701;45.588;5.288;2024-03-02T14:20:13;15.70;99.90
32201;DHT22;18701;45.588;5.288;2024-03-02T14:22:39;15.50;99.90
32201;DHT22;18701;45.588;5.288;2024-03-02T14:25:06;15.70;99.90
32201;DHT22;18701;45.588;5.288;2024-03-02T14:27:32;15.70;99.90
32201;DHT22;18701;45.588;5.288;2024-03-02T14:29:58;15.50;99.90
32201;DHT22;18701;45.588;5.288;2024-03-02T14:32:23;15.50;99.90
32201;DHT22;18701;45.588;5.288;2024-03-02T14:34:49;15.40;99.90
32201;DHT22;18701;45.588;5.288;2024-03-02T14:37:15;15.30;99.90
32201;DHT22;18701;45.588;5.288;2024-03-02T14:39:41;15.30;99.90
32201;DHT22;18701;45.588;5.288;2024-03-02T14:42:06;15.20;99.90
32201;DHT22;18701;45.588;5.288;2024-03-02T14:44:33;15.20;99.90
32201;DHT22;18701;45.588;5.288;2024-03-02T14:47:00;15.20;99.70
32201;DHT22;18701;45.588;5.288;2024-03-02T14:49:26;15.20;99.90
32201;DHT22;18701;45.588;5.288;2024-03-02T14:51:52;15.20;99.90
32201;DHT22;18701;45.588;5.288;2024-03-02T14:54:17;15.10;99.90
32201;DHT22;18701;45.588;5.288;2024-03-02T14:56:43;15.10;99.90
32201;DHT22;18701;45.588;5.288;2024-03-02T14:59:09;15.10;99.90
32201;DHT22;18701;45.588;5.288;2024-03-02T15:01:36;15.00;99.90
32201;DHT22;18701;45.588;5.288;2024-03-02T15:04:01;15.00;99.90
32201;DHT22;18701;45.588;5.288;2024-03-02T15:06:27;15.10;99.90
32201;DHT22;18701;45.588;5.288;2024-03-02T15:08:52;15.20;99.90
32201;DHT22;18701;45.588;5.288;2024-03-02T15:11:20;15.30;99.70
32201;DHT22;18701;45.588;5.288;2024-03-02T15:13:45;15.40;99.60
32201;DHT22;18701;45.588;5.288;2024-03-02T15:16:11;15.40;99.30
32201;DHT22;18701;45.588;5.288;2024-03-02T15:18:37;15.40;99.70
32201;DHT22;18701;45.588;5.288;2024-03-02T15:21:03;15.30;99.70
32201;DHT22;18701;45.588;5.288;2024-03-02T15:23:29;15.30;99.90
32201;DHT22;18701;45.588;5.288;2024-03-02T15:25:55;15.30;99.90
32201;DHT22;18701;45.588;5.288;2024-03-02T15:28:21;15.20;99.90
32201;DHT22;18701;45.588;5.288;2024-03-02T15:30:46;15.20;99.90
32201;DHT22;18701;45.588;5.288;2024-03-02T15:33:12;15.10;99.90
32201;DHT22;18701;45.588;5.288;2024-03-02T15:35:38;15.10;99.90
32201;DHT22;18701;45.588;5.288;2024-03-02T15:38:03;15.20;99.90
32201;DHT22;18701;45.588;5.288;2024-03-02T15:40:29;15.10;99.90